Almond, New York
Current Conditions -  °F | °C
As of 3:54 AM on Sunday 23 Nov 2014 (Local Time) from KDSV Reporting Station
Overcast Overcast  
Wind Chill:   Ceiling: 3700
Heat Index:   Visibility: 10mi
Dew Point:   Wind: 8mph
Humidity: 73%   Direction: 110°ESE
Pressure: 30.02"   Gusts: NA
Location:  42.32°N, 77.74°W
Report Text: KDSV 230854Z AUTO 11007KT 10SM OVC037 08/03 A3002 RMK AO2 SLP178 60000 T00780033 58004
Loading
Personal Weather Stations






























Interactive Weather Map New forecast layout! Learn more

10-Day Weather Forecast

Advertisements
Track Severe Weather on mobile